sensor_id;sensor_type;location;lat;lon;timestamp;P1;durP1;ratioP1;P2;durP2;ratioP2
11141;SDS011;5625;50.122;19.864;2022-12-29T00:01:09;21.93;;;14.13;;
11141;SDS011;5625;50.122;19.864;2022-12-29T00:03:37;22.43;;;13.97;;
11141;SDS011;5625;50.122;19.864;2022-12-29T00:06:08;18.43;;;12.53;;
11141;SDS011;5625;50.122;19.864;2022-12-29T00:08:36;19.70;;;12.57;;
11141;SDS011;5625;50.122;19.864;2022-12-29T00:11:07;18.60;;;13.20;;
11141;SDS011;5625;50.122;19.864;2022-12-29T00:13:40;17.23;;;12.77;;
11141;SDS011;5625;50.122;19.864;2022-12-29T00:16:26;18.63;;;12.77;;
11141;SDS011;5625;50.122;19.864;2022-12-29T00:18:55;15.37;;;10.77;;
11141;SDS011;5625;50.122;19.864;2022-12-29T00:21:23;13.67;;;9.60;;
11141;SDS011;5625;50.122;19.864;2022-12-29T00:24:10;13.20;;;8.33;;
11141;SDS011;5625;50.122;19.864;2022-12-29T00:26:58;11.70;;;8.33;;
11141;SDS011;5625;50.122;19.864;2022-12-29T00:29:52;11.97;;;8.07;;
11141;SDS011;5625;50.122;19.864;2022-12-29T00:32:43;10.43;;;7.50;;
11141;SDS011;5625;50.122;19.864;2022-12-29T00:35:29;13.67;;;8.33;;
11141;SDS011;5625;50.122;19.864;2022-12-29T00:38:02;11.20;;;8.13;;
11141;SDS011;5625;50.122;19.864;2022-12-29T00:40:50;12.13;;;8.70;;
11141;SDS011;5625;50.122;19.864;2022-12-29T00:43:35;14.10;;;9.07;;
11141;SDS011;5625;50.122;19.864;2022-12-29T00:46:23;11.07;;;7.90;;
11141;SDS011;5625;50.122;19.864;2022-12-29T00:48:51;12.13;;;7.77;;
11141;SDS011;5625;50.122;19.864;2022-12-29T00:51:36;12.00;;;8.33;;
11141;SDS011;5625;50.122;19.864;2022-12-29T00:54:04;11.93;;;8.23;;
11141;SDS011;5625;50.122;19.864;2022-12-29T00:56:32;12.60;;;8.23;;
11141;SDS011;5625;50.122;19.864;2022-12-29T00:59:00;11.47;;;8.33;;
11141;SDS011;5625;50.122;19.864;2022-12-29T01:01:30;12.23;;;8.73;;
11141;SDS011;5625;50.122;19.864;2022-12-29T01:03:59;13.43;;;8.97;;
11141;SDS011;5625;50.122;19.864;2022-12-29T01:06:29;11.90;;;8.77;;
11141;SDS011;5625;50.122;19.864;2022-12-29T01:08:58;12.77;;;8.87;;
11141;SDS011;5625;50.122;19.864;2022-12-29T01:11:44;11.00;;;9.00;;
11141;SDS011;5625;50.122;19.864;2022-12-29T01:14:12;13.17;;;9.33;;
11141;SDS011;5625;50.122;19.864;2022-12-29T01:16:41;12.30;;;9.10;;
11141;SDS011;5625;50.122;19.864;2022-12-29T01:19:09;16.10;;;10.53;;
11141;SDS011;5625;50.122;19.864;2022-12-29T01:21:38;15.23;;;10.70;;
11141;SDS011;5625;50.122;19.864;2022-12-29T01:24:06;17.47;;;11.43;;
11141;SDS011;5625;50.122;19.864;2022-12-29T01:26:34;16.03;;;11.33;;
11141;SDS011;5625;50.122;19.864;2022-12-29T01:29:02;16.37;;;12.10;;
11141;SDS011;5625;50.122;19.864;2022-12-29T01:31:30;16.40;;;12.17;;
11141;SDS011;5625;50.122;19.864;2022-12-29T01:34:00;17.67;;;12.83;;
11141;SDS011;5625;50.122;19.864;2022-12-29T01:36:28;18.17;;;12.77;;
11141;SDS011;5625;50.122;19.864;2022-12-29T01:38:56;16.63;;;12.80;;
11141;SDS011;5625;50.122;19.864;2022-12-29T01:41:24;17.87;;;12.07;;
11141;SDS011;5625;50.122;19.864;2022-12-29T01:43:53;16.27;;;11.37;;
11141;SDS011;5625;50.122;19.864;2022-12-29T01:46:24;16.20;;;11.53;;
11141;SDS011;5625;50.122;19.864;2022-12-29T01:48:55;16.83;;;11.60;;
11141;SDS011;5625;50.122;19.864;2022-12-29T01:51:33;18.63;;;11.30;;
11141;SDS011;5625;50.122;19.864;2022-12-29T01:54:04;16.03;;;9.83;;
11141;SDS011;5625;50.122;19.864;2022-12-29T01:56:38;13.90;;;9.33;;
11141;SDS011;5625;50.122;19.864;2022-12-29T01:59:08;14.03;;;9.63;;
11141;SDS011;5625;50.122;19.864;2022-12-29T02:01:43;14.37;;;9.53;;
11141;SDS011;5625;50.122;19.864;2022-12-29T02:04:13;13.50;;;8.93;;
11141;SDS011;5625;50.122;19.864;2022-12-29T02:06:44;14.13;;;9.53;;
11141;SDS011;5625;50.122;19.864;2022-12-29T02:09:17;12.37;;;8.60;;
11141;SDS011;5625;50.122;19.864;2022-12-29T02:11:45;13.90;;;9.70;;
11141;SDS011;5625;50.122;19.864;2022-12-29T02:14:14;13.07;;;9.93;;
11141;SDS011;5625;50.122;19.864;2022-12-29T02:16:48;13.40;;;9.83;;
11141;SDS011;5625;50.122;19.864;2022-12-29T02:22:34;15.50;;;9.97;;
11141;SDS011;5625;50.122;19.864;2022-12-29T02:25:27;13.73;;;9.80;;
11141;SDS011;5625;50.122;19.864;2022-12-29T02:28:30;15.33;;;9.50;;
11141;SDS011;5625;50.122;19.864;2022-12-29T02:31:17;13.87;;;10.23;;
11141;SDS011;5625;50.122;19.864;2022-12-29T02:33:52;15.23;;;9.77;;
11141;SDS011;5625;50.122;19.864;2022-12-29T02:36:29;14.13;;;9.97;;
11141;SDS011;5625;50.122;19.864;2022-12-29T02:39:10;15.37;;;10.10;;
11141;SDS011;5625;50.122;19.864;2022-12-29T02:41:45;15.17;;;9.70;;
11141;SDS011;5625;50.122;19.864;2022-12-29T02:44:24;16.60;;;11.20;;
11141;SDS011;5625;50.122;19.864;2022-12-29T02:47:03;15.10;;;11.00;;
11141;SDS011;5625;50.122;19.864;2022-12-29T02:49:38;15.37;;;10.83;;
11141;SDS011;5625;50.122;19.864;2022-12-29T02:52:14;18.13;;;11.20;;
11141;SDS011;5625;50.122;19.864;2022-12-29T02:54:47;15.93;;;10.87;;
11141;SDS011;5625;50.122;19.864;2022-12-29T02:57:26;17.03;;;10.87;;
11141;SDS011;5625;50.122;19.864;2022-12-29T02:59:57;17.23;;;9.63;;
11141;SDS011;5625;50.122;19.864;2022-12-29T03:02:34;16.23;;;10.97;;
11141;SDS011;5625;50.122;19.864;2022-12-29T03:05:18;14.53;;;10.07;;
11141;SDS011;5625;50.122;19.864;2022-12-29T03:07:55;14.03;;;9.47;;
11141;SDS011;5625;50.122;19.864;2022-12-29T03:10:35;15.70;;;10.00;;
11141;SDS011;5625;50.122;19.864;2022-12-29T03:13:14;14.67;;;10.23;;
11141;SDS011;5625;50.122;19.864;2022-12-29T03:16:11;14.30;;;9.97;;
11141;SDS011;5625;50.122;19.864;2022-12-29T03:18:51;14.67;;;10.57;;
11141;SDS011;5625;50.122;19.864;2022-12-29T03:21:26;14.73;;;10.10;;
11141;SDS011;5625;50.122;19.864;2022-12-29T03:24:17;15.47;;;9.97;;
11141;SDS011;5625;50.122;19.864;2022-12-29T03:26:48;15.93;;;10.70;;
11141;SDS011;5625;50.122;19.864;2022-12-29T03:29:18;14.03;;;9.63;;
11141;SDS011;5625;50.122;19.864;2022-12-29T03:31:48;13.43;;;9.43;;
11141;SDS011;5625;50.122;19.864;2022-12-29T03:34:20;12.83;;;8.57;;
11141;SDS011;5625;50.122;19.864;2022-12-29T03:36:50;12.53;;;8.80;;
11141;SDS011;5625;50.122;19.864;2022-12-29T03:39:21;14.13;;;9.37;;
11141;SDS011;5625;50.122;19.864;2022-12-29T03:41:57;12.13;;;9.10;;
11141;SDS011;5625;50.122;19.864;2022-12-29T03:44:32;13.30;;;8.57;;
11141;SDS011;5625;50.122;19.864;2022-12-29T03:47:02;11.37;;;8.30;;
11141;SDS011;5625;50.122;19.864;2022-12-29T03:49:32;13.83;;;8.57;;
11141;SDS011;5625;50.122;19.864;2022-12-29T03:52:00;10.87;;;7.63;;
11141;SDS011;5625;50.122;19.864;2022-12-29T03:54:28;11.30;;;7.63;;
11141;SDS011;5625;50.122;19.864;2022-12-29T03:56:57;12.80;;;8.13;;
11141;SDS011;5625;50.122;19.864;2022-12-29T03:59:25;16.10;;;9.60;;
11141;SDS011;5625;50.122;19.864;2022-12-29T04:01:53;14.23;;;9.87;;
11141;SDS011;5625;50.122;19.864;2022-12-29T04:04:21;13.90;;;9.43;;
11141;SDS011;5625;50.122;19.864;2022-12-29T04:06:51;13.43;;;8.37;;
11141;SDS011;5625;50.122;19.864;2022-12-29T04:09:19;12.73;;;8.47;;
11141;SDS011;5625;50.122;19.864;2022-12-29T04:11:47;12.67;;;8.67;;
11141;SDS011;5625;50.122;19.864;2022-12-29T04:14:15;11.37;;;8.73;;
11141;SDS011;5625;50.122;19.864;2022-12-29T04:16:43;14.67;;;10.70;;
11141;SDS011;5625;50.122;19.864;2022-12-29T04:19:12;16.83;;;11.73;;
11141;SDS011;5625;50.122;19.864;2022-12-29T04:21:40;16.07;;;11.63;;
11141;SDS011;5625;50.122;19.864;2022-12-29T04:24:09;16.00;;;11.57;;
11141;SDS011;5625;50.122;19.864;2022-12-29T04:26:39;15.77;;;11.03;;
11141;SDS011;5625;50.122;19.864;2022-12-29T04:29:07;15.47;;;10.63;;
11141;SDS011;5625;50.122;19.864;2022-12-29T04:31:35;15.50;;;11.47;;
11141;SDS011;5625;50.122;19.864;2022-12-29T04:34:03;17.00;;;11.10;;
11141;SDS011;5625;50.122;19.864;2022-12-29T04:36:31;15.40;;;9.87;;
11141;SDS011;5625;50.122;19.864;2022-12-29T04:38:59;14.73;;;11.03;;
11141;SDS011;5625;50.122;19.864;2022-12-29T04:41:29;15.20;;;11.33;;
11141;SDS011;5625;50.122;19.864;2022-12-29T04:43:57;15.50;;;11.40;;
11141;SDS011;5625;50.122;19.864;2022-12-29T04:46:25;19.23;;;12.27;;
11141;SDS011;5625;50.122;19.864;2022-12-29T04:48:53;16.83;;;11.73;;
11141;SDS011;5625;50.122;19.864;2022-12-29T04:51:21;15.80;;;11.23;;
11141;SDS011;5625;50.122;19.864;2022-12-29T04:53:49;17.20;;;11.13;;
11141;SDS011;5625;50.122;19.864;2022-12-29T04:56:17;15.13;;;11.63;;
11141;SDS011;5625;50.122;19.864;2022-12-29T04:58:47;20.23;;;12.73;;
11141;SDS011;5625;50.122;19.864;2022-12-29T05:01:15;18.50;;;12.67;;
11141;SDS011;5625;50.122;19.864;2022-12-29T05:03:43;22.57;;;15.17;;
11141;SDS011;5625;50.122;19.864;2022-12-29T05:06:11;23.37;;;14.83;;
11141;SDS011;5625;50.122;19.864;2022-12-29T05:08:39;22.53;;;13.40;;
11141;SDS011;5625;50.122;19.864;2022-12-29T05:11:07;18.93;;;13.50;;
11141;SDS011;5625;50.122;19.864;2022-12-29T05:13:35;15.87;;;12.33;;
11141;SDS011;5625;50.122;19.864;2022-12-29T05:16:05;19.13;;;11.30;;
11141;SDS011;5625;50.122;19.864;2022-12-29T05:18:33;19.77;;;12.00;;
11141;SDS011;5625;50.122;19.864;2022-12-29T05:21:01;13.50;;;9.73;;
11141;SDS011;5625;50.122;19.864;2022-12-29T05:23:30;17.27;;;9.80;;
11141;SDS011;5625;50.122;19.864;2022-12-29T05:25:58;12.87;;;8.30;;
11141;SDS011;5625;50.122;19.864;2022-12-29T05:28:26;15.43;;;9.83;;
11141;SDS011;5625;50.122;19.864;2022-12-29T05:30:54;12.50;;;9.73;;
11141;SDS011;5625;50.122;19.864;2022-12-29T05:33:24;14.53;;;9.43;;
11141;SDS011;5625;50.122;19.864;2022-12-29T05:35:52;11.47;;;8.83;;
11141;SDS011;5625;50.122;19.864;2022-12-29T05:38:20;14.83;;;9.53;;
11141;SDS011;5625;50.122;19.864;2022-12-29T05:40:49;14.43;;;8.53;;
11141;SDS011;5625;50.122;19.864;2022-12-29T05:43:17;11.53;;;7.87;;
11141;SDS011;5625;50.122;19.864;2022-12-29T05:45:47;11.77;;;8.73;;
11141;SDS011;5625;50.122;19.864;2022-12-29T05:48:16;11.27;;;8.37;;
11141;SDS011;5625;50.122;19.864;2022-12-29T05:50:47;9.97;;;7.20;;
11141;SDS011;5625;50.122;19.864;2022-12-29T05:53:16;9.60;;;7.57;;
11141;SDS011;5625;50.122;19.864;2022-12-29T05:55:45;12.83;;;7.73;;
11141;SDS011;5625;50.122;19.864;2022-12-29T05:58:14;14.63;;;7.97;;
11141;SDS011;5625;50.122;19.864;2022-12-29T06:00:43;14.57;;;7.67;;
11141;SDS011;5625;50.122;19.864;2022-12-29T06:03:11;11.80;;;6.73;;
11141;SDS011;5625;50.122;19.864;2022-12-29T06:05:40;8.40;;;6.80;;
11141;SDS011;5625;50.122;19.864;2022-12-29T06:08:09;10.70;;;7.03;;
11141;SDS011;5625;50.122;19.864;2022-12-29T06:10:37;9.37;;;6.33;;
11141;SDS011;5625;50.122;19.864;2022-12-29T06:13:05;9.73;;;6.37;;
11141;SDS011;5625;50.122;19.864;2022-12-29T06:15:33;7.77;;;5.83;;
11141;SDS011;5625;50.122;19.864;2022-12-29T06:18:02;8.93;;;6.10;;
11141;SDS011;5625;50.122;19.864;2022-12-29T06:20:30;6.33;;;5.67;;
11141;SDS011;5625;50.122;19.864;2022-12-29T06:22:58;9.90;;;6.50;;
11141;SDS011;5625;50.122;19.864;2022-12-29T06:25:28;9.17;;;5.47;;
11141;SDS011;5625;50.122;19.864;2022-12-29T06:27:58;10.87;;;6.17;;
11141;SDS011;5625;50.122;19.864;2022-12-29T06:30:26;8.43;;;6.13;;
11141;SDS011;5625;50.122;19.864;2022-12-29T06:32:54;10.83;;;6.53;;
11141;SDS011;5625;50.122;19.864;2022-12-29T06:35:22;10.00;;;5.93;;
11141;SDS011;5625;50.122;19.864;2022-12-29T06:37:51;9.90;;;6.70;;
11141;SDS011;5625;50.122;19.864;2022-12-29T06:40:19;9.33;;;6.60;;
11141;SDS011;5625;50.122;19.864;2022-12-29T06:42:49;8.70;;;6.23;;
11141;SDS011;5625;50.122;19.864;2022-12-29T06:45:17;8.03;;;6.20;;
11141;SDS011;5625;50.122;19.864;2022-12-29T06:47:45;9.77;;;6.60;;
11141;SDS011;5625;50.122;19.864;2022-12-29T06:50:13;10.70;;;6.50;;
11141;SDS011;5625;50.122;19.864;2022-12-29T06:52:42;8.83;;;6.50;;
11141;SDS011;5625;50.122;19.864;2022-12-29T06:55:10;10.57;;;6.03;;
11141;SDS011;5625;50.122;19.864;2022-12-29T06:57:38;10.53;;;6.57;;
11141;SDS011;5625;50.122;19.864;2022-12-29T07:00:09;7.40;;;6.10;;
11141;SDS011;5625;50.122;19.864;2022-12-29T07:02:37;7.30;;;5.77;;
11141;SDS011;5625;50.122;19.864;2022-12-29T07:05:06;7.17;;;5.87;;
11141;SDS011;5625;50.122;19.864;2022-12-29T07:07:35;6.93;;;5.70;;
11141;SDS011;5625;50.122;19.864;2022-12-29T07:10:04;8.27;;;5.43;;
11141;SDS011;5625;50.122;19.864;2022-12-29T07:12:32;10.40;;;6.10;;
11141;SDS011;5625;50.122;19.864;2022-12-29T07:15:02;14.27;;;6.23;;
11141;SDS011;5625;50.122;19.864;2022-12-29T07:17:32;10.97;;;6.40;;
11141;SDS011;5625;50.122;19.864;2022-12-29T07:20:00;10.83;;;5.67;;
11141;SDS011;5625;50.122;19.864;2022-12-29T07:22:28;8.47;;;5.93;;
11141;SDS011;5625;50.122;19.864;2022-12-29T07:24:56;9.37;;;5.80;;
11141;SDS011;5625;50.122;19.864;2022-12-29T07:27:24;12.53;;;5.90;;
11141;SDS011;5625;50.122;19.864;2022-12-29T07:29:53;8.47;;;6.27;;
11141;SDS011;5625;50.122;19.864;2022-12-29T07:32:21;10.40;;;5.60;;
11141;SDS011;5625;50.122;19.864;2022-12-29T07:34:51;9.13;;;5.93;;
11141;SDS011;5625;50.122;19.864;2022-12-29T07:37:19;6.77;;;5.40;;
11141;SDS011;5625;50.122;19.864;2022-12-29T07:39:47;7.20;;;5.13;;
11141;SDS011;5625;50.122;19.864;2022-12-29T07:42:15;12.40;;;5.70;;
11141;SDS011;5625;50.122;19.864;2022-12-29T07:44:43;13.40;;;5.93;;
11141;SDS011;5625;50.122;19.864;2022-12-29T07:47:11;10.03;;;5.47;;
11141;SDS011;5625;50.122;19.864;2022-12-29T07:49:40;15.77;;;5.27;;
11141;SDS011;5625;50.122;19.864;2022-12-29T07:52:09;13.17;;;5.87;;
11141;SDS011;5625;50.122;19.864;2022-12-29T07:54:37;8.53;;;5.40;;
11141;SDS011;5625;50.122;19.864;2022-12-29T07:57:06;9.30;;;5.40;;
11141;SDS011;5625;50.122;19.864;2022-12-29T07:59:34;9.00;;;5.47;;
11141;SDS011;5625;50.122;19.864;2022-12-29T08:02:02;7.33;;;4.73;;
11141;SDS011;5625;50.122;19.864;2022-12-29T08:04:30;5.67;;;4.70;;
11141;SDS011;5625;50.122;19.864;2022-12-29T08:06:58;7.17;;;4.90;;
11141;SDS011;5625;50.122;19.864;2022-12-29T08:09:28;5.97;;;4.50;;
11141;SDS011;5625;50.122;19.864;2022-12-29T08:11:56;6.53;;;4.57;;
11141;SDS011;5625;50.122;19.864;2022-12-29T08:14:24;5.27;;;4.53;;
11141;SDS011;5625;50.122;19.864;2022-12-29T08:16:52;5.20;;;3.93;;
11141;SDS011;5625;50.122;19.864;2022-12-29T08:19:24;7.43;;;4.50;;
11141;SDS011;5625;50.122;19.864;2022-12-29T08:21:52;5.37;;;4.17;;
11141;SDS011;5625;50.122;19.864;2022-12-29T08:24:21;5.73;;;4.60;;
11141;SDS011;5625;50.122;19.864;2022-12-29T08:26:50;6.57;;;4.43;;
11141;SDS011;5625;50.122;19.864;2022-12-29T08:29:18;10.00;;;5.30;;
11141;SDS011;5625;50.122;19.864;2022-12-29T08:31:47;9.87;;;5.17;;
11141;SDS011;5625;50.122;19.864;2022-12-29T08:34:17;8.37;;;6.20;;
11141;SDS011;5625;50.122;19.864;2022-12-29T08:36:45;9.10;;;6.17;;
11141;SDS011;5625;50.122;19.864;2022-12-29T08:39:14;9.77;;;6.37;;
11141;SDS011;5625;50.122;19.864;2022-12-29T08:41:42;13.00;;;7.17;;
11141;SDS011;5625;50.122;19.864;2022-12-29T08:44:11;8.97;;;6.43;;
11141;SDS011;5625;50.122;19.864;2022-12-29T08:46:39;12.63;;;6.43;;
11141;SDS011;5625;50.122;19.864;2022-12-29T08:49:07;7.93;;;6.27;;
11141;SDS011;5625;50.122;19.864;2022-12-29T08:51:35;10.93;;;6.53;;
11141;SDS011;5625;50.122;19.864;2022-12-29T08:54:06;12.23;;;6.30;;
11141;SDS011;5625;50.122;19.864;2022-12-29T08:56:35;10.23;;;6.20;;
11141;SDS011;5625;50.122;19.864;2022-12-29T08:59:03;8.57;;;5.33;;
11141;SDS011;5625;50.122;19.864;2022-12-29T09:01:32;7.30;;;4.97;;
11141;SDS011;5625;50.122;19.864;2022-12-29T09:04:02;6.00;;;5.00;;
11141;SDS011;5625;50.122;19.864;2022-12-29T09:06:41;6.70;;;5.13;;
11141;SDS011;5625;50.122;19.864;2022-12-29T09:09:09;5.63;;;4.73;;
11141;SDS011;5625;50.122;19.864;2022-12-29T09:11:38;5.97;;;4.63;;
11141;SDS011;5625;50.122;19.864;2022-12-29T09:14:06;8.00;;;5.70;;
11141;SDS011;5625;50.122;19.864;2022-12-29T09:16:38;8.07;;;5.17;;
11141;SDS011;5625;50.122;19.864;2022-12-29T09:19:20;15.63;;;8.33;;
11141;SDS011;5625;50.122;19.864;2022-12-29T09:21:48;11.80;;;7.07;;
11141;SDS011;5625;50.122;19.864;2022-12-29T09:24:16;14.63;;;8.13;;
11141;SDS011;5625;50.122;19.864;2022-12-29T09:26:44;9.77;;;7.07;;
11141;SDS011;5625;50.122;19.864;2022-12-29T09:29:12;8.40;;;6.10;;
11141;SDS011;5625;50.122;19.864;2022-12-29T09:31:42;7.67;;;5.63;;
11141;SDS011;5625;50.122;19.864;2022-12-29T09:34:10;8.70;;;5.43;;
11141;SDS011;5625;50.122;19.864;2022-12-29T09:36:38;6.30;;;4.97;;
11141;SDS011;5625;50.122;19.864;2022-12-29T09:39:07;7.07;;;4.93;;
11141;SDS011;5625;50.122;19.864;2022-12-29T09:41:36;6.40;;;5.00;;
11141;SDS011;5625;50.122;19.864;2022-12-29T09:44:12;7.40;;;5.13;;
11141;SDS011;5625;50.122;19.864;2022-12-29T09:46:48;6.67;;;4.70;;
11141;SDS011;5625;50.122;19.864;2022-12-29T09:49:21;10.87;;;5.20;;
11141;SDS011;5625;50.122;19.864;2022-12-29T09:51:53;9.17;;;5.30;;
11141;SDS011;5625;50.122;19.864;2022-12-29T09:54:30;7.97;;;5.13;;
11141;SDS011;5625;50.122;19.864;2022-12-29T09:57:21;8.03;;;5.50;;
11141;SDS011;5625;50.122;19.864;2022-12-29T09:59:53;7.83;;;6.00;;
11141;SDS011;5625;50.122;19.864;2022-12-29T10:02:29;8.50;;;6.10;;
11141;SDS011;5625;50.122;19.864;2022-12-29T10:05:04;8.83;;;7.00;;
11141;SDS011;5625;50.122;19.864;2022-12-29T10:07:45;8.87;;;6.60;;
11141;SDS011;5625;50.122;19.864;2022-12-29T10:10:22;9.73;;;6.93;;
11141;SDS011;5625;50.122;19.864;2022-12-29T10:13:06;12.47;;;6.50;;
11141;SDS011;5625;50.122;19.864;2022-12-29T10:15:52;10.83;;;7.07;;
11141;SDS011;5625;50.122;19.864;2022-12-29T10:21:27;7.07;;;5.97;;
11141;SDS011;5625;50.122;19.864;2022-12-29T10:24:06;15.47;;;7.27;;
11141;SDS011;5625;50.122;19.864;2022-12-29T10:26:39;11.37;;;6.73;;
11141;SDS011;5625;50.122;19.864;2022-12-29T10:29:11;12.77;;;7.53;;
11141;SDS011;5625;50.122;19.864;2022-12-29T10:31:43;12.67;;;7.20;;
11141;SDS011;5625;50.122;19.864;2022-12-29T10:34:18;14.13;;;8.40;;
11141;SDS011;5625;50.122;19.864;2022-12-29T10:36:49;11.97;;;7.70;;
11141;SDS011;5625;50.122;19.864;2022-12-29T10:39:23;12.30;;;7.20;;
11141;SDS011;5625;50.122;19.864;2022-12-29T10:42:01;9.77;;;7.13;;
11141;SDS011;5625;50.122;19.864;2022-12-29T10:44:35;9.93;;;7.63;;
11141;SDS011;5625;50.122;19.864;2022-12-29T10:47:06;10.77;;;7.83;;
11141;SDS011;5625;50.122;19.864;2022-12-29T10:49:41;11.57;;;8.40;;
11141;SDS011;5625;50.122;19.864;2022-12-29T10:52:12;11.13;;;7.67;;
11141;SDS011;5625;50.122;19.864;2022-12-29T10:57:02;12.73;;;8.33;;
11141;SDS011;5625;50.122;19.864;2022-12-29T10:59:36;10.90;;;8.27;;
11141;SDS011;5625;50.122;19.864;2022-12-29T11:02:22;12.70;;;8.93;;
11141;SDS011;5625;50.122;19.864;2022-12-29T11:05:10;16.13;;;9.60;;
11141;SDS011;5625;50.122;19.864;2022-12-29T11:07:47;18.20;;;8.60;;
11141;SDS011;5625;50.122;19.864;2022-12-29T11:10:16;12.13;;;9.07;;
11141;SDS011;5625;50.122;19.864;2022-12-29T11:13:00;13.77;;;9.00;;
11141;SDS011;5625;50.122;19.864;2022-12-29T11:15:37;12.93;;;8.73;;
11141;SDS011;5625;50.122;19.864;2022-12-29T11:18:17;9.87;;;8.07;;
11141;SDS011;5625;50.122;19.864;2022-12-29T11:20:48;13.80;;;9.43;;
11141;SDS011;5625;50.122;19.864;2022-12-29T11:23:22;13.57;;;9.20;;
11141;SDS011;5625;50.122;19.864;2022-12-29T11:26:05;12.83;;;9.37;;
11141;SDS011;5625;50.122;19.864;2022-12-29T11:28:45;12.00;;;9.40;;
11141;SDS011;5625;50.122;19.864;2022-12-29T11:31:16;14.37;;;9.40;;
11141;SDS011;5625;50.122;19.864;2022-12-29T11:33:46;12.47;;;8.50;;
11141;SDS011;5625;50.122;19.864;2022-12-29T11:36:15;12.13;;;9.17;;
11141;SDS011;5625;50.122;19.864;2022-12-29T11:38:47;12.50;;;8.67;;
11141;SDS011;5625;50.122;19.864;2022-12-29T11:41:21;13.60;;;9.50;;
11141;SDS011;5625;50.122;19.864;2022-12-29T11:43:52;15.73;;;8.93;;
11141;SDS011;5625;50.122;19.864;2022-12-29T11:46:24;12.60;;;8.67;;
11141;SDS011;5625;50.122;19.864;2022-12-29T11:48:57;11.73;;;8.23;;
11141;SDS011;5625;50.122;19.864;2022-12-29T11:51:28;14.47;;;7.43;;
11141;SDS011;5625;50.122;19.864;2022-12-29T11:54:02;23.10;;;9.53;;
11141;SDS011;5625;50.122;19.864;2022-12-29T11:56:33;14.63;;;8.23;;
11141;SDS011;5625;50.122;19.864;2022-12-29T12:02:11;18.63;;;9.10;;
11141;SDS011;5625;50.122;19.864;2022-12-29T12:04:53;12.43;;;7.83;;
11141;SDS011;5625;50.122;19.864;2022-12-29T12:07:32;12.63;;;8.37;;
11141;SDS011;5625;50.122;19.864;2022-12-29T12:10:08;10.93;;;7.83;;
11141;SDS011;5625;50.122;19.864;2022-12-29T12:12:44;13.13;;;8.00;;
11141;SDS011;5625;50.122;19.864;2022-12-29T12:15:19;12.43;;;7.73;;
11141;SDS011;5625;50.122;19.864;2022-12-29T12:17:51;12.07;;;8.50;;
11141;SDS011;5625;50.122;19.864;2022-12-29T12:20:27;12.00;;;7.87;;
11141;SDS011;5625;50.122;19.864;2022-12-29T12:23:06;10.83;;;7.10;;
11141;SDS011;5625;50.122;19.864;2022-12-29T12:25:47;16.33;;;7.87;;
11141;SDS011;5625;50.122;19.864;2022-12-29T12:28:21;16.57;;;8.73;;
11141;SDS011;5625;50.122;19.864;2022-12-29T12:31:05;10.17;;;6.93;;
11141;SDS011;5625;50.122;19.864;2022-12-29T12:33:46;10.90;;;6.80;;
11141;SDS011;5625;50.122;19.864;2022-12-29T12:36:22;8.83;;;6.57;;
11141;SDS011;5625;50.122;19.864;2022-12-29T12:38:59;7.80;;;6.03;;
11141;SDS011;5625;50.122;19.864;2022-12-29T12:41:34;9.87;;;5.43;;
11141;SDS011;5625;50.122;19.864;2022-12-29T12:44:13;9.30;;;5.43;;
11141;SDS011;5625;50.122;19.864;2022-12-29T12:47:11;5.73;;;5.00;;
11141;SDS011;5625;50.122;19.864;2022-12-29T12:53:06;7.43;;;4.63;;
11141;SDS011;5625;50.122;19.864;2022-12-29T12:56:08;6.10;;;4.30;;
11141;SDS011;5625;50.122;19.864;2022-12-29T12:58:59;6.20;;;4.40;;
11141;SDS011;5625;50.122;19.864;2022-12-29T13:01:38;6.37;;;4.90;;
11141;SDS011;5625;50.122;19.864;2022-12-29T13:04:34;5.87;;;5.20;;
11141;SDS011;5625;50.122;19.864;2022-12-29T13:07:20;6.50;;;5.03;;
11141;SDS011;5625;50.122;19.864;2022-12-29T13:10:02;7.00;;;4.87;;
11141;SDS011;5625;50.122;19.864;2022-12-29T13:12:46;5.60;;;4.60;;
11141;SDS011;5625;50.122;19.864;2022-12-29T13:15:22;7.33;;;4.70;;
11141;SDS011;5625;50.122;19.864;2022-12-29T13:18:06;6.20;;;4.33;;
11141;SDS011;5625;50.122;19.864;2022-12-29T13:20:47;6.90;;;4.97;;
11141;SDS011;5625;50.122;19.864;2022-12-29T13:23:22;11.10;;;5.63;;
11141;SDS011;5625;50.122;19.864;2022-12-29T13:25:59;6.17;;;5.07;;
11141;SDS011;5625;50.122;19.864;2022-12-29T13:28:35;9.37;;;5.00;;
11141;SDS011;5625;50.122;19.864;2022-12-29T13:31:11;7.37;;;4.80;;
11141;SDS011;5625;50.122;19.864;2022-12-29T13:33:46;8.40;;;5.20;;
11141;SDS011;5625;50.122;19.864;2022-12-29T13:36:25;6.43;;;4.73;;
11141;SDS011;5625;50.122;19.864;2022-12-29T13:39:01;7.63;;;4.87;;
11141;SDS011;5625;50.122;19.864;2022-12-29T13:41:33;6.43;;;4.93;;
11141;SDS011;5625;50.122;19.864;2022-12-29T13:44:04;6.00;;;4.93;;
11141;SDS011;5625;50.122;19.864;2022-12-29T13:46:34;8.27;;;5.57;;
11141;SDS011;5625;50.122;19.864;2022-12-29T13:49:06;9.67;;;6.60;;
11141;SDS011;5625;50.122;19.864;2022-12-29T13:51:41;9.67;;;7.10;;
11141;SDS011;5625;50.122;19.864;2022-12-29T13:54:17;17.20;;;10.20;;
11141;SDS011;5625;50.122;19.864;2022-12-29T13:56:56;13.03;;;8.37;;
11141;SDS011;5625;50.122;19.864;2022-12-29T13:59:36;12.30;;;7.47;;
11141;SDS011;5625;50.122;19.864;2022-12-29T14:02:13;12.97;;;6.67;;
11141;SDS011;5625;50.122;19.864;2022-12-29T14:04:57;10.63;;;6.27;;
11141;SDS011;5625;50.122;19.864;2022-12-29T14:07:29;14.83;;;6.33;;
11141;SDS011;5625;50.122;19.864;2022-12-29T14:10:03;16.63;;;7.30;;
11141;SDS011;5625;50.122;19.864;2022-12-29T14:12:34;9.20;;;5.87;;
11141;SDS011;5625;50.122;19.864;2022-12-29T14:15:06;7.90;;;5.90;;
11141;SDS011;5625;50.122;19.864;2022-12-29T14:18:00;10.27;;;6.00;;
11141;SDS011;5625;50.122;19.864;2022-12-29T14:20:31;8.10;;;6.53;;
11141;SDS011;5625;50.122;19.864;2022-12-29T14:23:15;9.60;;;6.00;;
11141;SDS011;5625;50.122;19.864;2022-12-29T14:25:55;11.13;;;6.17;;
11141;SDS011;5625;50.122;19.864;2022-12-29T14:28:39;14.37;;;6.50;;
11141;SDS011;5625;50.122;19.864;2022-12-29T14:36:58;13.13;;;6.63;;
11141;SDS011;5625;50.122;19.864;2022-12-29T14:39:31;13.47;;;7.13;;
11141;SDS011;5625;50.122;19.864;2022-12-29T14:42:04;13.30;;;6.97;;
11141;SDS011;5625;50.122;19.864;2022-12-29T14:44:34;10.60;;;6.00;;
11141;SDS011;5625;50.122;19.864;2022-12-29T14:47:17;13.90;;;8.02;;
11141;SDS011;5625;50.122;19.864;2022-12-29T14:49:49;13.43;;;8.50;;
11141;SDS011;5625;50.122;19.864;2022-12-29T14:52:18;16.63;;;9.60;;
11141;SDS011;5625;50.122;19.864;2022-12-29T14:54:54;14.37;;;8.83;;
11141;SDS011;5625;50.122;19.864;2022-12-29T14:57:25;13.90;;;9.60;;
11141;SDS011;5625;50.122;19.864;2022-12-29T14:59:58;13.20;;;8.70;;
11141;SDS011;5625;50.122;19.864;2022-12-29T15:02:33;14.77;;;8.10;;
11141;SDS011;5625;50.122;19.864;2022-12-29T15:05:10;13.70;;;9.10;;
11141;SDS011;5625;50.122;19.864;2022-12-29T15:07:52;14.53;;;9.03;;
11141;SDS011;5625;50.122;19.864;2022-12-29T15:10:24;19.63;;;10.60;;
11141;SDS011;5625;50.122;19.864;2022-12-29T15:13:00;31.03;;;14.87;;
11141;SDS011;5625;50.122;19.864;2022-12-29T15:15:35;36.63;;;19.80;;
11141;SDS011;5625;50.122;19.864;2022-12-29T15:18:18;39.80;;;23.70;;
11141;SDS011;5625;50.122;19.864;2022-12-29T15:20:51;26.80;;;17.50;;
11141;SDS011;5625;50.122;19.864;2022-12-29T15:23:22;21.03;;;15.13;;
11141;SDS011;5625;50.122;19.864;2022-12-29T15:25:53;18.13;;;12.87;;
11141;SDS011;5625;50.122;19.864;2022-12-29T15:28:23;15.60;;;11.50;;
11141;SDS011;5625;50.122;19.864;2022-12-29T15:30:53;17.43;;;11.40;;